Time,TemperatureF,DewpointF,PressureIn,WindDirection,WindDirectionDegrees,WindSpeedMPH,WindSpeedGustMPH,Humidity,HourlyPrecipIn,Conditions,Clouds,dailyrainin,SoftwareType,DateUTC
2013-07-11 00:04:00,78.5,73.0,29.83,WSW,257,5.0,9.0,84,0.00,,,0.00,weatherlink.com 1.10,2013-07-11 04:04:00,
2013-07-11 00:19:00,78.7,74.0,29.83,WSW,250,4.0,7.0,84,0.00,,,0.00,weatherlink.com 1.10,2013-07-11 04:19:00,
2013-07-11 00:34:00,78.8,74.0,29.83,WSW,249,9.0,10.0,84,0.00,,,0.00,weatherlink.com 1.10,2013-07-11 04:34:00,
2013-07-11 00:49:00,79.0,74.0,29.83,SSW,207,3.0,10.0,83,0.00,,,0.00,weatherlink.com 1.10,2013-07-11 04:49:00,
2013-07-11 01:06:00,79.0,73.0,29.83,SSW,195,2.0,8.0,82,0.00,,,0.00,weatherlink.com 1.10,2013-07-11 05:06:00,
2013-07-11 01:21:00,78.5,73.0,29.83,SSW,211,3.0,5.0,83,0.00,,,0.00,weatherlink.com 1.10,2013-07-11 05:21:00,
2013-07-11 01:36:00,78.3,73.0,29.82,SSW,204,4.0,5.0,84,0.00,,,0.00,weatherlink.com 1.10,2013-07-11 05:36:00,
2013-07-11 01:51:00,78.3,73.0,29.81,SSW,205,0.0,4.0,84,0.00,,,0.00,weatherlink.com 1.10,2013-07-11 05:51:00,
2013-07-11 02:06:00,78.5,73.0,29.80,SSW,210,2.0,6.0,84,0.00,,,0.00,weatherlink.com 1.10,2013-07-11 06:06:00,
2013-07-11 02:21:00,78.1,73.0,29.80,WSW,245,2.0,7.0,85,0.00,,,0.00,weatherlink.com 1.10,2013-07-11 06:21:00,
2013-07-11 02:36:00,77.9,73.0,29.80,West,281,0.0,4.0,85,0.00,,,0.00,weatherlink.com 1.10,2013-07-11 06:36:00,
2013-07-11 02:51:00,76.8,72.0,29.79,SSW,203,3.0,4.0,86,0.00,,,0.00,weatherlink.com 1.10,2013-07-11 06:51:00,
2013-07-11 03:06:00,76.2,73.0,29.79,SSW,198,6.0,18.0,88,0.03,,,0.03,weatherlink.com 1.10,2013-07-11 07:06:00,
2013-07-11 03:22:00,75.8,72.0,29.78,SSW,212,1.0,3.0,89,0.03,,,0.03,weatherlink.com 1.10,2013-07-11 07:22:00,
2013-07-11 03:37:00,75.5,72.0,29.78,SSW,203,1.0,5.0,89,0.03,,,0.03,weatherlink.com 1.10,2013-07-11 07:37:00,
2013-07-11 03:52:00,75.3,72.0,29.77,SSW,198,1.0,4.0,90,0.03,,,0.03,weatherlink.com 1.10,2013-07-11 07:52:00,
2013-07-11 04:07:00,75.4,72.0,29.77,SSE,166,2.0,4.0,90,0.00,,,0.03,weatherlink.com 1.10,2013-07-11 08:07:00,
2013-07-11 04:22:00,75.7,73.0,29.77,SW,226,1.0,8.0,91,0.02,,,0.05,weatherlink.com 1.10,2013-07-11 08:22:00,
2013-07-11 04:38:00,75.9,73.0,29.77,SW,217,3.0,6.0,91,0.02,,,0.05,weatherlink.com 1.10,2013-07-11 08:38:00,
2013-07-11 04:53:00,75.6,73.0,29.77,SSW,205,1.0,4.0,90,0.02,,,0.05,weatherlink.com 1.10,2013-07-11 08:53:00,
2013-07-11 05:08:00,75.7,73.0,29.77,SSW,205,1.0,2.0,91,0.02,,,0.05,weatherlink.com 1.10,2013-07-11 09:08:00,
2013-07-11 05:23:00,75.7,73.0,29.77,SW,214,2.0,3.0,91,0.00,,,0.05,weatherlink.com 1.10,2013-07-11 09:23:00,
2013-07-11 05:39:00,75.9,73.0,29.78,WNW,286,2.0,3.0,91,0.00,,,0.05,weatherlink.com 1.10,2013-07-11 09:39:00,
2013-07-11 05:54:00,75.5,73.0,29.78,WNW,299,2.0,4.0,91,0.00,,,0.05,weatherlink.com 1.10,2013-07-11 09:54:00,
2013-07-11 06:09:00,75.5,73.0,29.78,WSW,240,3.0,5.0,91,0.00,,,0.05,weatherlink.com 1.10,2013-07-11 10:09:00,
2013-07-11 06:24:00,75.4,73.0,29.78,WSW,245,3.0,6.0,91,0.00,,,0.05,weatherlink.com 1.10,2013-07-11 10:24:00,
2013-07-11 06:39:00,75.5,73.0,29.79,SW,224,1.0,4.0,91,0.00,,,0.05,weatherlink.com 1.10,2013-07-11 10:39:00,
2013-07-11 06:56:00,75.9,73.0,29.80,WSW,245,2.0,3.0,91,0.00,,,0.05,weatherlink.com 1.10,2013-07-11 10:56:00,
2013-07-11 07:11:00,76.6,74.0,29.80,SW,229,1.0,4.0,90,0.00,,,0.05,weatherlink.com 1.10,2013-07-11 11:11:00,
2013-07-11 07:26:00,76.2,73.0,29.81,West,277,2.0,4.0,89,0.00,,,0.05,weatherlink.com 1.10,2013-07-11 11:26:00,
2013-07-11 07:41:00,76.6,74.0,29.81,SSW,212,4.0,5.0,90,0.00,,,0.05,weatherlink.com 1.10,2013-07-11 11:41:00,
2013-07-11 07:56:00,77.5,74.0,29.81,West,262,1.0,8.0,89,0.00,,,0.05,weatherlink.com 1.10,2013-07-11 11:56:00,
2013-07-11 08:11:00,78.2,74.0,29.81,WNW,289,5.0,8.0,88,0.00,,,0.05,weatherlink.com 1.10,2013-07-11 12:11:00,
2013-07-11 08:26:00,78.6,75.0,29.81,WNW,290,2.0,12.0,87,0.00,,,0.05,weatherlink.com 1.10,2013-07-11 12:26:00,
2013-07-11 08:41:00,79.6,75.0,29.81,West,269,5.0,11.0,85,0.00,,,0.05,weatherlink.com 1.10,2013-07-11 12:41:00,
2013-07-11 08:57:00,80.3,75.0,29.80,WNW,282,8.0,13.0,84,0.00,,,0.05,weatherlink.com 1.10,2013-07-11 12:57:00,
2013-07-11 09:12:00,81.4,75.0,29.80,WSW,250,6.0,9.0,82,0.00,,,0.05,weatherlink.com 1.10,2013-07-11 13:12:00,
2013-07-11 09:27:00,81.2,75.0,29.80,West,264,5.0,12.0,81,0.00,,,0.05,weatherlink.com 1.10,2013-07-11 13:27:00,
2013-07-11 09:42:00,82.4,76.0,29.80,WSW,256,4.0,7.0,81,0.00,,,0.05,weatherlink.com 1.10,2013-07-11 13:42:00,
2013-07-11 09:57:00,83.1,75.0,29.80,NW,325,6.0,12.0,77,0.00,,,0.05,weatherlink.com 1.10,2013-07-11 13:57:00,
2013-07-11 10:13:00,82.6,74.0,29.79,WNW,283,8.0,14.0,75,0.00,,,0.05,weatherlink.com 1.10,2013-07-11 14:13:00,
2013-07-11 10:28:00,83.7,73.0,29.79,WSW,241,7.0,12.0,71,0.00,,,0.05,weatherlink.com 1.10,2013-07-11 14:28:00,
2013-07-11 10:58:00,85.3,74.0,29.79,SW,225,2.0,10.0,68,0.00,,,0.05,weatherlink.com 1.10,2013-07-11 14:58:00,
2013-07-11 11:14:00,86.2,74.0,29.79,West,271,3.0,11.0,68,0.00,,,0.05,weatherlink.com 1.10,2013-07-11 15:14:00,
2013-07-11 11:29:00,85.6,73.0,29.79,West,259,3.0,10.0,67,0.00,,,0.05,weatherlink.com 1.10,2013-07-11 15:29:00,
2013-07-11 12:02:00,85.2,74.0,29.79,WSW,243,6.0,8.0,70,0.00,,,0.05,weatherlink.com 1.10,2013-07-11 16:02:00,
2013-07-11 12:16:00,-999.0,-99.9,29.79,North,-999,-999.0,-999.0,-999,0.00,,,0.05,weatherlink.com 1.10,2013-07-11 16:16:00,
2013-07-11 12:32:00,-999.0,-99.9,29.78,North,-999,-999.0,-999.0,-999,0.00,,,0.05,weatherlink.com 1.10,2013-07-11 16:32:00,
2013-07-11 12:46:00,-999.0,-99.9,29.78,North,-999,-999.0,-999.0,-999,0.00,,,0.05,weatherlink.com 1.10,2013-07-11 16:46:00,
2013-07-11 13:31:00,-999.0,-99.9,29.77,North,-999,-999.0,-999.0,-999,0.00,,,0.05,weatherlink.com 1.10,2013-07-11 17:31:00,
2013-07-11 13:47:00,-999.0,-99.9,29.77,North,-999,-999.0,-999.0,-999,0.00,,,0.05,weatherlink.com 1.10,2013-07-11 17:47:00,
2013-07-11 14:02:00,-999.0,-99.9,29.76,North,-999,-999.0,-999.0,-999,0.00,,,0.05,weatherlink.com 1.10,2013-07-11 18:02:00,
2013-07-11 14:17:00,-999.0,-99.9,29.76,North,-999,-999.0,-999.0,-999,0.00,,,0.05,weatherlink.com 1.10,2013-07-11 18:17:00,
2013-07-11 14:32:00,-999.0,-99.9,29.75,North,-999,-999.0,-999.0,-999,0.00,,,0.05,weatherlink.com 1.10,2013-07-11 18:32:00,
2013-07-11 15:03:00,-999.0,-99.9,29.75,North,-999,-999.0,-999.0,-999,0.00,,,0.05,weatherlink.com 1.10,2013-07-11 19:03:00,
2013-07-11 15:18:00,-999.0,-99.9,29.74,North,-999,-999.0,-999.0,-999,0.00,,,0.05,weatherlink.com 1.10,2013-07-11 19:18:00,
2013-07-11 15:33:00,-999.0,-99.9,29.74,North,-999,-999.0,-999.0,-999,0.00,,,0.05,weatherlink.com 1.10,2013-07-11 19:33:00,
2013-07-11 16:19:00,-999.0,-99.9,29.73,North,-999,-999.0,-999.0,-999,0.00,,,0.05,weatherlink.com 1.10,2013-07-11 20:19:00,
2013-07-11 17:04:00,-999.0,-99.9,29.73,North,-999,-999.0,-999.0,-999,0.00,,,0.05,weatherlink.com 1.10,2013-07-11 21:04:00,
2013-07-11 17:21:00,-999.0,-99.9,29.72,North,-999,-999.0,-999.0,-999,0.00,,,0.05,weatherlink.com 1.10,2013-07-11 21:21:00,
2013-07-11 17:36:00,85.2,74.0,29.72,WSW,242,11.0,13.0,69,0.00,,,0.05,weatherlink.com 1.10,2013-07-11 21:36:00,
2013-07-11 17:51:00,85.7,74.0,29.71,SSW,211,6.0,14.0,69,0.00,,,0.05,weatherlink.com 1.10,2013-07-11 21:51:00,
2013-07-11 18:06:00,84.7,74.0,29.71,SSW,212,8.0,20.0,71,0.00,,,0.05,weatherlink.com 1.10,2013-07-11 22:06:00,
2013-07-11 18:21:00,83.6,74.0,29.72,WSW,239,8.0,16.0,72,0.00,,,0.05,weatherlink.com 1.10,2013-07-11 22:21:00,
2013-07-11 18:36:00,82.5,74.0,29.72,WSW,240,7.0,16.0,75,0.00,,,0.05,weatherlink.com 1.10,2013-07-11 22:36:00,
2013-07-11 18:51:00,81.8,73.0,29.73,WSW,240,8.0,15.0,75,0.00,,,0.05,weatherlink.com 1.10,2013-07-11 22:51:00,
2013-07-11 19:06:00,81.4,73.0,29.73,SW,227,5.0,15.0,76,0.00,,,0.05,weatherlink.com 1.10,2013-07-11 23:06:00,
2013-07-11 19:37:00,80.9,74.0,29.75,West,263,4.0,10.0,79,0.00,,,0.05,weatherlink.com 1.10,2013-07-11 23:37:00,
2013-07-11 19:52:00,80.6,74.0,29.75,SW,224,6.0,7.0,80,0.00,,,0.05,weatherlink.com 1.10,2013-07-11 23:52:00,
2013-07-11 20:07:00,80.5,74.0,29.74,SW,219,6.0,8.0,81,0.00,,,0.05,weatherlink.com 1.10,2013-07-12 00:07:00,
2013-07-11 20:38:00,80.1,75.0,29.73,SW,233,8.0,9.0,83,0.00,,,0.05,weatherlink.com 1.10,2013-07-12 00:38:00,
2013-07-11 20:53:00,80.0,74.0,29.74,West,260,3.0,6.0,83,0.00,,,0.05,weatherlink.com 1.10,2013-07-12 00:53:00,
2013-07-11 21:08:00,79.9,74.0,29.74,WSW,243,6.0,7.0,83,0.00,,,0.05,weatherlink.com 1.10,2013-07-12 01:08:00,
2013-07-11 21:23:00,79.6,74.0,29.73,SW,221,7.0,9.0,83,0.00,,,0.05,weatherlink.com 1.10,2013-07-12 01:23:00,
2013-07-11 21:54:00,79.0,74.0,29.74,SW,232,1.0,6.0,85,0.00,,,0.05,weatherlink.com 1.10,2013-07-12 01:54:00,
2013-07-11 22:09:00,79.6,74.0,29.75,SW,233,0.0,4.0,83,0.00,,,0.05,weatherlink.com 1.10,2013-07-12 02:09:00,
2013-07-11 22:24:00,79.1,74.0,29.75,WNW,291,0.0,6.0,84,0.00,,,0.05,weatherlink.com 1.10,2013-07-12 02:24:00,
2013-07-11 22:39:00,79.3,74.0,29.75,SSW,193,1.0,3.0,83,0.00,,,0.05,weatherlink.com 1.10,2013-07-12 02:39:00,
2013-07-11 22:54:00,78.5,73.0,29.75,SSW,203,2.0,3.0,84,0.00,,,0.05,weatherlink.com 1.10,2013-07-12 02:54:00,
2013-07-11 23:11:00,78.4,73.0,29.75,SW,216,3.0,3.0,84,0.00,,,0.05,weatherlink.com 1.10,2013-07-12 03:11:00,
2013-07-11 23:26:00,78.4,74.0,29.75,SSW,198,2.0,4.0,85,0.00,,,0.05,weatherlink.com 1.10,2013-07-12 03:26:00,
2013-07-11 23:41:00,78.2,73.0,29.74,SSW,207,2.0,6.0,85,0.00,,,0.05,weatherlink.com 1.10,2013-07-12 03:41:00,
2013-07-11 23:56:00,78.3,74.0,29.74,WSW,239,2.0,6.0,85,0.00,,,0.05,weatherlink.com 1.10,2013-07-12 03:56:00,